createdAt,value
2019-03-10T00:01:21.392Z,100357.07
2019-03-10T00:03:49.825Z,100352.87
2019-03-10T00:06:18.408Z,100335.09
2019-03-10T00:08:46.840Z,100350.77
2019-03-10T00:11:15.232Z,100349.38
2019-03-10T00:13:43.667Z,100346.61
2019-03-10T00:16:16.083Z,100344.08
2019-03-10T00:18:43.733Z,100357.34
2019-03-10T00:21:15.231Z,100355.95
2019-03-10T00:23:43.636Z,100347.20
2019-03-10T00:26:12.084Z,100352.82
2019-03-10T00:28:40.470Z,100351.27
2019-03-10T00:31:08.942Z,100363.39
2019-03-10T00:33:37.313Z,100353.61
2019-03-10T00:36:05.725Z,100350.98
2019-03-10T00:38:39.801Z,100349.28
2019-03-10T00:41:39.923Z,100343.59
2019-03-10T00:44:36.489Z,100347.67
2019-03-10T00:47:41.342Z,100345.52
2019-03-10T00:50:32.305Z,100343.52
2019-03-10T00:53:01.369Z,100344.83
2019-03-10T00:55:30.004Z,100348.53
2019-03-10T00:58:02.741Z,100361.26
2019-03-10T01:00:31.140Z,100360.66
2019-03-10T01:02:59.522Z,100354.82
2019-03-10T01:05:27.983Z,100338.75
2019-03-10T01:07:56.395Z,100342.48
2019-03-10T01:10:24.867Z,100327.72
2019-03-10T01:12:53.644Z,100316.37
2019-03-10T01:15:22.107Z,100330.05
2019-03-10T01:17:52.560Z,100324.33
2019-03-10T01:20:20.974Z,100320.77
2019-03-10T01:22:49.385Z,100324.00
2019-03-10T01:25:17.887Z,100330.22
2019-03-10T01:27:56.397Z,100337.67
2019-03-10T01:30:19.585Z,100343.02
2019-03-10T01:33:01.150Z,100333.23
2019-03-10T01:35:30.197Z,100337.40
2019-03-10T01:37:58.626Z,100330.55
2019-03-10T01:40:27.055Z,100324.05
2019-03-10T01:42:55.537Z,100326.38
2019-03-10T01:45:24.402Z,100322.88
2019-03-10T01:47:52.818Z,100330.22
2019-03-10T01:50:21.240Z,100315.75
2019-03-10T01:52:49.646Z,100316.81
2019-03-10T01:55:18.061Z,100315.72
2019-03-10T01:57:46.470Z,100315.94
2019-03-10T02:00:17.011Z,100320.67
2019-03-10T02:02:45.405Z,100314.98
2019-03-10T02:05:14.090Z,100313.80
2019-03-10T02:07:42.489Z,100314.55
2019-03-10T02:10:13.003Z,100313.47
2019-03-10T02:12:41.434Z,100312.52
2019-03-10T02:15:15.943Z,100305.58
2019-03-10T02:17:44.426Z,100300.24
2019-03-10T02:20:15.537Z,100297.36
2019-03-10T02:22:43.928Z,100291.89
2019-03-10T02:25:12.548Z,100296.05
2019-03-10T02:27:40.980Z,100298.65
2019-03-10T02:30:12.442Z,100294.56
2019-03-10T02:32:40.996Z,100308.46
2019-03-10T02:35:09.540Z,100306.82
2019-03-10T02:37:37.959Z,100291.03
2019-03-10T02:40:09.139Z,100298.00
2019-03-10T02:42:37.537Z,100293.20
2019-03-10T02:45:07.855Z,100289.42
2019-03-10T02:47:36.245Z,100285.61
2019-03-10T02:50:06.395Z,100285.39
2019-03-10T02:52:34.819Z,100281.70
2019-03-10T02:55:03.213Z,100289.34
2019-03-10T02:57:31.624Z,100295.80
2019-03-10T03:00:00.040Z,100297.02
2019-03-10T03:02:28.430Z,100286.98
2019-03-10T03:04:56.966Z,100275.06
2019-03-10T03:07:25.348Z,100276.62
2019-03-10T03:09:53.820Z,100273.75
2019-03-10T03:12:22.218Z,100258.44
2019-03-10T03:14:50.946Z,100270.00
2019-03-10T03:17:19.341Z,100270.73
2019-03-10T03:19:47.725Z,100271.91
2019-03-10T03:22:16.141Z,100269.86
2019-03-10T03:24:44.541Z,100280.30
2019-03-10T03:27:12.960Z,100272.78
2019-03-10T03:29:41.343Z,100276.37
2019-03-10T03:32:09.761Z,100280.91
2019-03-10T03:34:38.162Z,100280.69
2019-03-10T03:37:07.928Z,100282.38
2019-03-10T03:39:38.891Z,100272.23
2019-03-10T03:42:07.293Z,100268.88
2019-03-10T03:44:35.709Z,100268.80
2019-03-10T03:47:04.119Z,100269.03
2019-03-10T03:49:32.515Z,100273.98
2019-03-10T03:52:00.936Z,100271.06
2019-03-10T03:54:29.335Z,100266.77
2019-03-10T03:56:57.741Z,100265.24
2019-03-10T03:59:26.140Z,100271.57
2019-03-10T04:01:56.199Z,100268.50
2019-03-10T04:04:26.786Z,100266.09
2019-03-10T04:06:55.192Z,100266.45
2019-03-10T04:09:23.586Z,100267.27
2019-03-10T04:11:51.988Z,100268.88
2019-03-10T04:14:20.365Z,100261.09
2019-03-10T04:16:48.774Z,100262.55
2019-03-10T04:19:17.168Z,100254.42
2019-03-10T04:21:45.677Z,100249.75
2019-03-10T04:24:14.090Z,100251.06
2019-03-10T04:26:42.489Z,100243.78
2019-03-10T04:29:10.879Z,100240.20
2019-03-10T04:31:39.280Z,100238.50
2019-03-10T04:34:07.671Z,100242.22
2019-03-10T04:36:36.056Z,100236.09
2019-03-10T04:39:09.294Z,100233.71
2019-03-10T04:41:39.749Z,100226.46
2019-03-10T04:44:08.184Z,100232.89
2019-03-10T04:46:36.620Z,100239.95
2019-03-10T04:49:05.010Z,100235.45
2019-03-10T04:51:33.465Z,100239.61
2019-03-10T04:54:01.889Z,100235.31
2019-03-10T04:56:31.923Z,100231.23
2019-03-10T04:59:00.318Z,100226.70
2019-03-10T05:01:28.716Z,100229.03
2019-03-10T05:03:58.747Z,100225.44
2019-03-10T05:06:27.132Z,100222.72
2019-03-10T05:08:56.440Z,100216.75
2019-03-10T05:11:24.873Z,100207.20
2019-03-10T05:13:53.250Z,100212.09
2019-03-10T05:16:21.657Z,100201.36
2019-03-10T05:18:50.083Z,100202.34
2019-03-10T05:21:18.496Z,100206.04
2019-03-10T05:23:46.919Z,100196.48
2019-03-10T05:26:15.323Z,100200.38
2019-03-10T05:28:46.993Z,100205.52
2019-03-10T05:31:15.473Z,100207.71
2019-03-10T05:33:43.889Z,100203.27
2019-03-10T05:36:12.404Z,100199.55
2019-03-10T05:38:40.861Z,100193.70
2019-03-10T05:41:11.425Z,100193.90
2019-03-10T05:43:39.832Z,100188.66
2019-03-10T05:46:08.234Z,100187.35
2019-03-10T05:48:36.699Z,100186.75
2019-03-10T05:51:05.156Z,100187.00
2019-03-10T05:53:33.573Z,100187.73
2019-03-10T05:56:01.951Z,100177.94
2019-03-10T05:58:30.357Z,100180.48
2019-03-10T06:01:02.421Z,100174.95
2019-03-10T06:03:30.820Z,100169.29
2019-03-10T06:05:59.199Z,100165.07
2019-03-10T06:08:27.603Z,100160.53
2019-03-10T06:10:56.030Z,100160.36
2019-03-10T06:13:24.457Z,100153.37
2019-03-10T06:15:53.015Z,100144.81
2019-03-10T06:18:21.416Z,100137.48
2019-03-10T06:20:49.824Z,100133.97
2019-03-10T06:23:18.250Z,100133.08
2019-03-10T06:25:46.662Z,100125.58
2019-03-10T06:28:16.741Z,100121.26
2019-03-10T06:30:45.041Z,100113.13
2019-03-10T06:33:13.423Z,100114.41
2019-03-10T06:35:41.834Z,100106.52
2019-03-10T06:38:10.221Z,100110.00
2019-03-10T06:40:38.662Z,100106.14
2019-03-10T06:43:07.043Z,100101.01
2019-03-10T06:45:35.435Z,100098.61
2019-03-10T06:48:03.961Z,100090.04
2019-03-10T06:50:32.350Z,100091.14
2019-03-10T06:53:00.903Z,100095.14
2019-03-10T06:55:29.300Z,100086.53
2019-03-10T06:57:59.033Z,100093.47
2019-03-10T07:00:36.519Z,100087.75
2019-03-10T07:03:06.957Z,100084.75
2019-03-10T07:05:41.202Z,100082.41
2019-03-10T07:08:09.585Z,100085.69
2019-03-10T07:10:38.000Z,100089.11
2019-03-10T07:13:06.470Z,100082.42
2019-03-10T07:15:34.847Z,100079.78
2019-03-10T07:18:03.236Z,100073.39
2019-03-10T07:20:31.656Z,100072.23
2019-03-10T07:23:00.051Z,100072.60
2019-03-10T07:25:28.456Z,100071.91
2019-03-10T07:27:58.523Z,100070.03
2019-03-10T07:30:31.475Z,100064.13
2019-03-10T07:33:19.985Z,100062.58
2019-03-10T07:35:50.058Z,100052.64
2019-03-10T07:39:55.208Z,100048.83
2019-03-10T07:42:25.251Z,100048.83
2019-03-10T07:45:11.760Z,100024.45
2019-03-10T07:48:00.067Z,100024.45
2019-03-10T07:50:36.243Z,100016.00
2019-03-10T07:53:08.845Z,100016.03
2019-03-10T07:56:03.236Z,100014.28
2019-03-10T07:58:34.092Z,100014.28
2019-03-10T08:01:13.463Z,99999.40
2019-03-10T08:03:43.510Z,99999.40
2019-03-10T08:07:16.329Z,99999.95
2019-03-10T08:09:46.367Z,99999.95
2019-03-10T08:12:16.500Z,99999.59
2019-03-10T08:14:46.545Z,100001.19
2019-03-10T08:17:24.521Z,99994.17
2019-03-10T08:20:04.140Z,99999.84
2019-03-10T08:22:34.201Z,99999.92
2019-03-10T08:25:07.401Z,99996.70
2019-03-10T08:28:01.193Z,99999.99
2019-03-10T08:30:41.197Z,99997.97
2019-03-10T08:33:17.456Z,99989.53
2019-03-10T08:35:54.437Z,99983.38
2019-03-10T08:38:25.134Z,99986.69
2019-03-10T08:40:56.207Z,99989.91
2019-03-10T08:43:29.184Z,99984.91
2019-03-10T08:45:59.381Z,99975.97
2019-03-10T08:48:29.761Z,99978.02
2019-03-10T08:51:02.518Z,99978.02
2019-03-10T08:53:39.263Z,99978.02
2019-03-10T08:56:12.018Z,99953.81
2019-03-10T08:58:58.426Z,99956.63
2019-03-10T09:01:28.521Z,99960.20
2019-03-10T09:04:07.290Z,99951.56
2019-03-10T09:06:37.336Z,99949.70
2019-03-10T09:09:33.902Z,99953.37
2019-03-10T09:12:03.940Z,99942.46
2019-03-10T09:14:33.996Z,99947.79
2019-03-10T09:17:06.774Z,99939.80
2019-03-10T09:19:36.814Z,99947.87
2019-03-10T09:22:11.130Z,99939.70
2019-03-10T09:24:53.187Z,99927.15
2019-03-10T09:27:38.225Z,99922.91
2019-03-10T09:30:11.589Z,99918.67
2019-03-10T09:32:41.621Z,99909.36
2019-03-10T09:35:16.805Z,99909.53
2019-03-10T09:37:49.850Z,99911.16
2019-03-10T09:40:20.241Z,99912.74
2019-03-10T09:42:52.305Z,99908.69
2019-03-10T09:45:22.051Z,99907.06
2019-03-10T09:48:07.482Z,99905.97
2019-03-10T09:50:37.523Z,99906.33
2019-03-10T09:53:23.494Z,99899.59
2019-03-10T09:55:56.967Z,99894.69
2019-03-10T09:58:29.465Z,99892.19
2019-03-10T10:01:02.414Z,99884.42
2019-03-10T10:03:35.211Z,99873.77
2019-03-10T10:06:05.271Z,99877.11
2019-03-10T10:08:37.745Z,99874.25
2019-03-10T10:11:24.445Z,99873.55
2019-03-10T10:14:13.403Z,99869.05
2019-03-10T10:16:53.299Z,99866.39
2019-03-10T10:19:35.497Z,99861.95
2019-03-10T10:22:05.565Z,99853.23
2019-03-10T10:24:35.585Z,99845.28
2019-03-10T10:27:11.319Z,99845.83
2019-03-10T10:29:46.800Z,99843.88
2019-03-10T10:32:23.810Z,99840.69
2019-03-10T10:34:56.817Z,99835.64
2019-03-10T10:37:29.573Z,99833.52
2019-03-10T10:40:19.120Z,99834.64
2019-03-10T10:42:49.135Z,99826.76
2019-03-10T10:45:34.225Z,99827.94
2019-03-10T10:48:10.394Z,99827.08
2019-03-10T10:51:02.894Z,99828.89
2019-03-10T10:53:38.710Z,99835.63
2019-03-10T10:56:08.744Z,99833.48
2019-03-10T10:58:38.756Z,99825.41
2019-03-10T11:01:24.053Z,99820.93
2019-03-10T11:03:56.997Z,99814.53
2019-03-10T11:06:27.032Z,99811.36
2019-03-10T11:09:12.346Z,99803.03
2019-03-10T11:11:42.393Z,99802.75
2019-03-10T11:14:20.905Z,99800.80
2019-03-10T11:17:06.037Z,99799.11
2019-03-10T11:19:52.015Z,99794.36
2019-03-10T11:22:40.164Z,99785.02
2019-03-10T11:25:10.353Z,99781.38
2019-03-10T11:27:55.719Z,99774.92
2019-03-10T11:30:41.447Z,99766.16
2019-03-10T11:33:17.185Z,99759.91
2019-03-10T11:35:47.272Z,99746.78
2019-03-10T11:38:17.329Z,99738.31
2019-03-10T11:41:04.895Z,99727.86
2019-03-10T11:43:34.925Z,99724.04
2019-03-10T11:46:25.264Z,99725.97
2019-03-10T11:48:57.722Z,99732.78
2019-03-10T11:51:42.130Z,99726.81
2019-03-10T11:54:12.159Z,99721.23
2019-03-10T11:56:42.360Z,99712.77
2019-03-10T11:59:29.183Z,99712.16
2019-03-10T12:02:16.031Z,99700.09
2019-03-10T12:04:39.933Z,99695.59
2019-03-10T12:07:10.009Z,99687.95
2019-03-10T12:09:38.435Z,99697.53
2019-03-10T12:12:13.986Z,99690.27
2019-03-10T12:14:45.130Z,99680.41
2019-03-10T12:17:19.142Z,99675.97
2019-03-10T12:19:48.626Z,99671.11
2019-03-10T12:22:22.750Z,99656.76
2019-03-10T12:24:53.979Z,99648.70
2019-03-10T12:27:26.840Z,99651.61
2019-03-10T12:29:59.309Z,99656.23
2019-03-10T12:32:29.664Z,99653.64
2019-03-10T12:35:07.564Z,99653.20
2019-03-10T12:37:36.001Z,99644.16
2019-03-10T12:40:06.184Z,99637.81
2019-03-10T12:42:45.680Z,99635.98
2019-03-10T12:45:19.117Z,99625.98
2019-03-10T12:47:49.753Z,99628.63
2019-03-10T12:50:20.660Z,99626.23
2019-03-10T12:52:50.087Z,99621.88
2019-03-10T12:55:24.812Z,99612.98
2019-03-10T12:57:57.097Z,99609.80
2019-03-10T13:00:29.497Z,99602.06
2019-03-10T13:03:03.029Z,99597.70
2019-03-10T13:05:32.392Z,99597.48
2019-03-10T13:08:04.503Z,99591.48
2019-03-10T13:10:39.429Z,99588.27
2019-03-10T13:13:07.822Z,99584.11
2019-03-10T13:15:40.402Z,99575.09
2019-03-10T13:18:08.799Z,99566.95
2019-03-10T13:20:37.231Z,99565.53
2019-03-10T13:23:08.985Z,99561.55
2019-03-10T13:25:37.398Z,99565.89
2019-03-10T13:28:09.656Z,99557.17
2019-03-10T13:30:38.084Z,99559.23
2019-03-10T13:33:11.377Z,99542.16
2019-03-10T13:35:39.823Z,99541.96
2019-03-10T13:38:10.783Z,99535.08
2019-03-10T13:40:43.990Z,99524.81
2019-03-10T13:43:14.877Z,99518.62
2019-03-10T13:45:43.396Z,99514.68
2019-03-10T13:48:14.261Z,99514.94
2019-03-10T13:50:43.685Z,99521.06
2019-03-10T13:53:19.671Z,99519.20
2019-03-10T13:55:49.168Z,99529.76
2019-03-10T13:58:18.688Z,99533.49
2019-03-10T14:00:47.122Z,99541.13
2019-03-10T14:03:15.618Z,99537.13
2019-03-10T14:05:46.486Z,99546.72
2019-03-10T14:08:15.869Z,99550.80
2019-03-10T14:10:44.248Z,99549.03
2019-03-10T14:13:16.018Z,99557.31
2019-03-10T14:15:44.702Z,99565.37
2019-03-10T14:18:13.104Z,99565.37
2019-03-10T14:20:45.014Z,99559.13
2019-03-10T14:23:13.406Z,99554.87
2019-03-10T14:25:44.033Z,99542.70
2019-03-10T14:28:12.519Z,99543.55
2019-03-10T14:30:41.441Z,99539.11
2019-03-10T14:33:12.561Z,99545.35
2019-03-10T14:35:43.806Z,99397.68
2019-03-10T14:38:12.284Z,99555.46
2019-03-10T14:40:44.750Z,99550.31
2019-03-10T14:43:17.264Z,99552.85
2019-03-10T14:45:46.806Z,99547.41
2019-03-10T14:48:15.179Z,99555.53
2019-03-10T14:50:45.866Z,99553.95
2019-03-10T14:53:13.835Z,99551.02
2019-03-10T14:55:46.746Z,99548.99
2019-03-10T14:58:18.025Z,99545.97
2019-03-10T15:00:51.161Z,99537.78
2019-03-10T15:03:19.581Z,99536.45
2019-03-10T15:05:47.980Z,99538.63
2019-03-10T15:08:16.384Z,99539.84
2019-03-10T15:10:44.764Z,99541.06
2019-03-10T15:13:13.350Z,99553.76
2019-03-10T15:15:41.732Z,99551.27
2019-03-10T15:18:13.213Z,99556.84
2019-03-10T15:20:44.147Z,99568.99
2019-03-10T15:23:12.546Z,99583.09
2019-03-10T15:25:40.937Z,99582.08
2019-03-10T15:28:10.427Z,99584.92
2019-03-10T15:30:41.375Z,99579.42
2019-03-10T15:33:10.849Z,99586.47
2019-03-10T15:35:39.257Z,99575.72
2019-03-10T15:38:07.649Z,99576.57
2019-03-10T15:40:36.066Z,99570.61
2019-03-10T15:43:04.635Z,99565.34
2019-03-10T15:45:33.055Z,99563.41
2019-03-10T15:48:01.444Z,99552.90
2019-03-10T15:50:41.235Z,99547.00
2019-03-10T15:53:12.148Z,99545.30
2019-03-10T15:55:41.543Z,99550.23
2019-03-10T15:58:10.793Z,99535.73
2019-03-10T16:00:40.161Z,99529.19
2019-03-10T16:03:11.040Z,99534.41
2019-03-10T16:05:39.447Z,99545.69
2019-03-10T16:08:07.928Z,99558.86
2019-03-10T16:10:36.313Z,99559.72
2019-03-10T16:13:04.895Z,99565.45
2019-03-10T16:15:35.709Z,99565.45
2019-03-10T16:18:04.178Z,99574.73
2019-03-10T16:20:32.689Z,99583.14
2019-03-10T16:23:03.250Z,99593.86
2019-03-10T16:25:32.699Z,99597.48
2019-03-10T16:28:05.081Z,99601.30
2019-03-10T16:30:33.474Z,99609.50
2019-03-10T16:33:05.745Z,99617.92
2019-03-10T16:35:38.158Z,99622.85
2019-03-10T16:38:09.959Z,99620.16
2019-03-10T16:40:41.700Z,99627.97
2019-03-10T16:43:14.087Z,99632.59
2019-03-10T16:45:49.413Z,99636.09
2019-03-10T16:48:17.777Z,99643.71
2019-03-10T16:50:46.191Z,99654.19
2019-03-10T16:53:14.593Z,99653.53
2019-03-10T16:55:43.018Z,99658.34
2019-03-10T16:58:11.460Z,99667.19
2019-03-10T17:00:39.873Z,99676.43
2019-03-10T17:03:08.928Z,99678.05
2019-03-10T17:05:37.446Z,99678.98
2019-03-10T17:08:09.313Z,99679.04
2019-03-10T17:10:37.772Z,99682.45
2019-03-10T17:13:07.714Z,99693.67
2019-03-10T17:15:36.334Z,99699.49
2019-03-10T17:18:07.791Z,99703.99
2019-03-10T17:20:38.743Z,99706.76
2019-03-10T17:23:11.166Z,99712.84
2019-03-10T17:25:38.983Z,99713.13
2019-03-10T17:28:07.425Z,99723.91
2019-03-10T17:30:35.975Z,99731.44
2019-03-10T17:33:04.728Z,99739.08
2019-03-10T17:35:35.627Z,99743.47
2019-03-10T17:38:06.648Z,99756.20
2019-03-10T17:40:35.279Z,99758.06
2019-03-10T17:43:08.058Z,99766.73
2019-03-10T17:45:36.844Z,99782.11
2019-03-10T17:48:06.553Z,99786.72
2019-03-10T17:50:35.051Z,99791.47
2019-03-10T17:53:03.428Z,99803.47
2019-03-10T17:55:31.857Z,99809.51
2019-03-10T17:58:01.538Z,99816.09
2019-03-10T18:00:37.843Z,99823.78
2019-03-10T18:03:06.308Z,99826.27
2019-03-10T18:05:34.936Z,99838.03
2019-03-10T18:08:03.843Z,99843.33
2019-03-10T18:10:32.688Z,99849.63
2019-03-10T18:13:01.540Z,99863.67
2019-03-10T18:15:31.010Z,99868.74
2019-03-10T18:17:59.556Z,99874.49
2019-03-10T18:20:30.811Z,99884.66
2019-03-10T18:23:00.249Z,99887.23
2019-03-10T18:25:29.355Z,99894.57
2019-03-10T18:27:57.847Z,99902.94
2019-03-10T18:30:28.359Z,99911.47
2019-03-10T18:32:56.753Z,99914.72
2019-03-10T18:35:26.392Z,99921.76
2019-03-10T18:37:58.913Z,99929.80
2019-03-10T18:40:27.391Z,99931.67
2019-03-10T18:42:56.049Z,99937.98
2019-03-10T18:45:25.039Z,99946.29
2019-03-10T18:47:54.133Z,99946.70
2019-03-10T18:50:27.639Z,99951.88
2019-03-10T18:52:57.303Z,99959.44
2019-03-10T18:55:26.050Z,99969.87
2019-03-10T18:57:57.347Z,99976.73
2019-03-10T19:00:28.211Z,99982.75
2019-03-10T19:02:59.454Z,99983.16
2019-03-10T19:05:28.146Z,99991.40
2019-03-10T19:07:57.465Z,99992.97
2019-03-10T19:10:29.712Z,100002.78
2019-03-10T19:13:00.818Z,100010.06
2019-03-10T19:15:30.932Z,100013.30
2019-03-10T19:17:59.945Z,100015.16
2019-03-10T19:20:29.105Z,100022.30
2019-03-10T19:22:58.182Z,100027.20
2019-03-10T19:25:26.962Z,100030.02
2019-03-10T19:28:00.980Z,100037.16
2019-03-10T19:30:32.089Z,100041.99
2019-03-10T19:33:00.940Z,100043.17
2019-03-10T19:35:29.691Z,100044.88
2019-03-10T19:37:59.380Z,100053.80
2019-03-10T19:40:29.095Z,100061.80
2019-03-10T19:43:02.115Z,100060.05
2019-03-10T19:45:30.989Z,100063.64
2019-03-10T19:48:02.131Z,100065.56
2019-03-10T19:50:31.281Z,99895.80
2019-03-10T19:53:01.023Z,100070.95
2019-03-10T19:55:32.247Z,100079.66
2019-03-10T19:58:00.787Z,100082.08
2019-03-10T20:00:31.986Z,100080.19
2019-03-10T20:03:00.647Z,100094.39
2019-03-10T20:05:30.487Z,100097.98
2019-03-10T20:07:59.234Z,100105.65
2019-03-10T20:10:30.860Z,100102.06
2019-03-10T20:13:01.197Z,100113.03
2019-03-10T20:15:33.374Z,100111.37
2019-03-10T20:18:03.392Z,100111.72
2019-03-10T20:20:35.283Z,100121.55
2019-03-10T20:23:03.802Z,100119.74
2019-03-10T20:25:33.264Z,100129.44
2019-03-10T20:28:01.718Z,100129.77
2019-03-10T20:30:30.230Z,100132.53
2019-03-10T20:32:58.642Z,100136.98
2019-03-10T20:35:27.059Z,100149.39
2019-03-10T20:37:55.456Z,100149.31
2019-03-10T20:40:31.172Z,100153.00
2019-03-10T20:42:58.810Z,100160.30
2019-03-10T20:45:29.636Z,100166.77
2019-03-10T20:47:58.081Z,100169.50
2019-03-10T20:50:30.344Z,100175.29
2019-03-10T20:52:58.748Z,100180.80
2019-03-10T20:55:31.309Z,100183.42
2019-03-10T20:57:59.695Z,100195.25
2019-03-10T21:00:29.704Z,100197.39
2019-03-10T21:03:00.075Z,100202.55
2019-03-10T21:05:32.674Z,100201.61
2019-03-10T21:08:01.063Z,100205.42
2019-03-10T21:10:29.476Z,100211.41
2019-03-10T21:12:57.863Z,100211.54
2019-03-10T21:15:28.776Z,100210.09
2019-03-10T21:17:57.193Z,100216.44
2019-03-10T21:20:29.835Z,100212.50
2019-03-10T21:22:58.293Z,100215.28
2019-03-10T21:25:29.646Z,100224.96
2019-03-10T21:27:58.064Z,100228.89
2019-03-10T21:30:29.097Z,100231.30
2019-03-10T21:33:00.091Z,100238.32
2019-03-10T21:35:28.575Z,100246.70
2019-03-10T21:37:58.058Z,100251.35
2019-03-10T21:40:30.074Z,100256.59
2019-03-10T21:42:58.527Z,100262.21
2019-03-10T21:45:28.028Z,100261.95
2019-03-10T21:47:56.441Z,100271.00
2019-03-10T21:50:25.850Z,100272.58
2019-03-10T21:52:54.269Z,100269.82
2019-03-10T21:55:25.566Z,100273.17
2019-03-10T21:57:53.987Z,100277.56
2019-03-10T22:00:26.346Z,100279.70
2019-03-10T22:02:54.759Z,100281.59
2019-03-10T22:05:23.155Z,100281.21
2019-03-10T22:07:51.575Z,100290.63
2019-03-10T22:10:27.469Z,100287.48
2019-03-10T22:12:53.420Z,100291.73
2019-03-10T22:15:22.132Z,100293.39
2019-03-10T22:17:51.608Z,100289.89
2019-03-10T22:20:26.651Z,100291.78
2019-03-10T22:22:55.578Z,100296.28
2019-03-10T22:25:26.374Z,100295.33
2019-03-10T22:27:54.780Z,100305.48
2019-03-10T22:30:24.057Z,100307.87
2019-03-10T22:32:52.538Z,100306.06
2019-03-10T22:35:20.983Z,100312.86
2019-03-10T22:37:53.151Z,100317.72
2019-03-10T22:40:24.256Z,100318.80
2019-03-10T22:42:55.590Z,100322.46
2019-03-10T22:45:24.011Z,100322.00
2019-03-10T22:47:54.777Z,100321.82
2019-03-10T22:50:23.267Z,100329.80
2019-03-10T22:52:51.638Z,100321.13
2019-03-10T22:55:22.548Z,100326.08
2019-03-10T22:57:53.746Z,100337.61
2019-03-10T23:00:31.946Z,100336.44
2019-03-10T23:03:04.750Z,100338.80
2019-03-10T23:05:33.213Z,100347.38
2019-03-10T23:08:04.574Z,100348.42
2019-03-10T23:10:32.998Z,100350.95
2019-03-10T23:13:01.404Z,100354.40
2019-03-10T23:15:29.816Z,100356.47
2019-03-10T23:17:58.238Z,100360.19
2019-03-10T23:20:26.617Z,100364.34
2019-03-10T23:22:57.479Z,100365.19
2019-03-10T23:25:29.765Z,100368.12
2019-03-10T23:28:01.969Z,100357.25
2019-03-10T23:30:30.300Z,100364.41
2019-03-10T23:33:03.208Z,100361.20
2019-03-10T23:35:31.609Z,100363.22
2019-03-10T23:38:02.125Z,100373.14
2019-03-10T23:40:30.685Z,100369.20
2019-03-10T23:43:05.153Z,100365.25
2019-03-10T23:45:35.788Z,100372.30
2019-03-10T23:48:05.140Z,100374.17
2019-03-10T23:50:33.542Z,100373.92
2019-03-10T23:53:02.928Z,100374.88
2019-03-10T23:55:31.343Z,100380.97
2019-03-10T23:58:00.579Z,100380.28
